Weather reports worldwide

Advertisment
Santon Downham, United Kingdom (99118): temperature & dewpoint: 25.10.2020 04:00:00 - 31.10.2020 04:00:00 (GMT)Santon Downham, United Kingdom (99118): temperature -20cm & temperature -100cm: 25.10.2020 04:00:00 - 31.10.2020 04:00:00 (GMT)Santon Downham, United Kingdom (99118): precipitation: 25.10.2020 04:00:00 - 31.10.2020 04:00:00 (GMT)
Date & Time tt [°C] td [°C] tt -20cm [°C] tt -100cm [°C] rr [mm]
31.10.2020 04:00:00 14,2 12,0 - - 0,0
31.10.2020 03:00:00 14,4 12,5 - - 0,0
31.10.2020 02:00:00 14,5 13,1 - - 0,0
31.10.2020 01:00:00 14,4 13,6 - - 0,0
31.10.2020 00:00:00 14,3 13,7 - - 0,0
30.10.2020 23:00:00 14,4 13,6 - - 0,0
30.10.2020 22:00:00 13,9 13,1 - - 0,0
30.10.2020 21:00:00 14,3 13,2 - - 0,0
30.10.2020 20:00:00 14,5 13,6 - - 0,0
30.10.2020 19:00:00 15,0 13,9 - - 0,2
30.10.2020 18:00:00 15,6 14,0 - - 0,0
30.10.2020 17:00:00 15,6 14,0 - - 0,0
30.10.2020 16:00:00 16,1 13,8 - - 0,0
30.10.2020 15:00:00 16,3 13,9 - - 0,0
30.10.2020 14:00:00 16,2 13,7 - - 0,0
30.10.2020 13:00:00 16,2 13,5 - - 0,0
30.10.2020 12:00:00 16,2 13,0 - - 0,0
30.10.2020 11:00:00 15,9 12,8 - - 0,0
30.10.2020 10:00:00 15,5 12,7 - - 0,0
30.10.2020 09:00:00 15,4 12,5 11,2 12,4 0,0
30.10.2020 08:00:00 15,1 12,3 - - 0,0
30.10.2020 07:00:00 15,0 12,0 - - 0,0
30.10.2020 06:00:00 14,9 11,9 - - 0,0
30.10.2020 05:00:00 14,8 12,0 - - 0,0
30.10.2020 04:00:00 14,6 12,0 - - 0,0
30.10.2020 03:00:00 14,6 11,7 - - 0,0
30.10.2020 02:00:00 14,5 11,5 - - 0,0
30.10.2020 01:00:00 14,3 11,6 - - 0,0
30.10.2020 00:00:00 13,9 11,8 - - 0,4
29.10.2020 23:00:00 14,5 11,8 - - 0,0
29.10.2020 22:00:00 14,5 11,9 - - 0,0
29.10.2020 21:00:00 13,9 11,8 - - 0,0
29.10.2020 20:00:00 14,1 11,9 - - 0,0
29.10.2020 19:00:00 13,7 11,9 - - 0,0
29.10.2020 18:00:00 13,4 11,8 - - 0,0
29.10.2020 17:00:00 13,2 12,1 - - 0,0
29.10.2020 16:00:00 13,2 12,2 - - 0,0
29.10.2020 15:00:00 12,8 12,0 - - 1,0
29.10.2020 14:00:00 12,4 11,7 - - 0,8
29.10.2020 13:00:00 11,6 10,9 - - 1,6
29.10.2020 12:00:00 10,8 10,1 - - 0,8
29.10.2020 11:00:00 10,3 9,4 - - 1,0
29.10.2020 10:00:00 9,7 8,7 - - 0,4
29.10.2020 09:00:00 8,8 7,9 10,7 12,5 0,6
29.10.2020 08:00:00 8,7 6,8 - - 0,0
29.10.2020 07:00:00 7,9 6,2 - - 0,0
29.10.2020 06:00:00 7,2 5,6 - - 0,0
29.10.2020 05:00:00 6,7 5,2 - - 0,0
29.10.2020 04:00:00 6,5 5,0 - - 0,0
29.10.2020 03:00:00 6,5 4,9 - - 0,0
29.10.2020 02:00:00 6,4 4,7 - - 0,0
29.10.2020 01:00:00 6,3 4,6 - - 0,0
29.10.2020 00:00:00 6,7 4,9 - - 0,0
28.10.2020 23:00:00 7,2 5,7 - - 0,0
28.10.2020 22:00:00 7,1 5,5 - - 0,0
28.10.2020 21:00:00 7,3 5,5 - - 0,0
28.10.2020 20:00:00 7,8 5,7 - - 0,0
28.10.2020 19:00:00 7,7 6,1 - - 0,0
28.10.2020 18:00:00 7,7 6,1 - - 0,0
28.10.2020 17:00:00 8,1 6,6 - - 1,0
28.10.2020 16:00:00 10,5 6,2 - - 0,0
28.10.2020 15:00:00 11,8 6,7 - - 0,4
28.10.2020 14:00:00 12,0 7,0 - - 0,0
28.10.2020 13:00:00 12,4 6,4 - - 0,0
28.10.2020 12:00:00 13,2 7,2 - - 0,0
28.10.2020 11:00:00 11,6 6,6 - - 0,0
28.10.2020 10:00:00 12,0 6,4 - - 0,0
28.10.2020 09:00:00 10,3 5,9 10,7 12,7 0,0
28.10.2020 08:00:00 8,7 5,5 - - 0,0
28.10.2020 07:00:00 7,8 5,3 - - 0,0
28.10.2020 06:00:00 7,8 5,4 - - 0,0
28.10.2020 05:00:00 8,1 5,6 - - 0,0
28.10.2020 04:00:00 8,2 5,6 - - 0,0
28.10.2020 03:00:00 8,1 5,4 - - 0,0
28.10.2020 02:00:00 8,4 5,8 - - 0,0
28.10.2020 01:00:00 8,2 5,9 - - 0,0
28.10.2020 00:00:00 8,1 6,0 - - 0,0
27.10.2020 23:00:00 7,9 5,9 - - 0,0
27.10.2020 22:00:00 8,5 5,8 - - 0,0
27.10.2020 21:00:00 8,7 6,3 - - 0,0
27.10.2020 20:00:00 9,1 6,5 - - 0,0
27.10.2020 19:00:00 10,7 8,0 - - 0,2
27.10.2020 18:00:00 12,4 10,8 - - 0,0
27.10.2020 17:00:00 12,5 11,8 - - 0,4
27.10.2020 16:00:00 12,1 11,3 - - 0,2
27.10.2020 15:00:00 11,3 10,6 - - 0,4
27.10.2020 14:00:00 11,1 10,3 - - 0,6
27.10.2020 13:00:00 10,3 9,5 - - 0,2
27.10.2020 12:00:00 9,6 8,9 - - 0,2
27.10.2020 11:00:00 9,7 8,3 - - 0,2
27.10.2020 10:00:00 8,7 7,1 - - 0,2
27.10.2020 09:00:00 8,8 6,7 10,9 12,7 0,0
27.10.2020 08:00:00 8,1 6,0 - - 0,0
27.10.2020 07:00:00 7,4 6,4 - - 0,0
27.10.2020 06:00:00 5,8 5,2 - - 0,0
27.10.2020 05:00:00 6,3 5,6 - - 0,0
27.10.2020 04:00:00 6,7 5,8 - - 0,0
27.10.2020 03:00:00 6,9 5,6 - - 0,0
27.10.2020 02:00:00 7,0 5,9 - - 0,0
27.10.2020 01:00:00 6,5 5,3 - - 0,0
27.10.2020 00:00:00 6,8 5,2 - - 0,0
26.10.2020 23:00:00 7,1 5,5 - - 0,0
26.10.2020 22:00:00 7,2 5,4 - - 0,0
26.10.2020 21:00:00 7,7 5,6 - - 0,0
26.10.2020 20:00:00 8,3 6,3 - - 0,0
26.10.2020 19:00:00 7,4 6,1 - - 0,0
26.10.2020 18:00:00 9,5 6,9 - - 0,0
26.10.2020 17:00:00 10,2 7,2 - - 0,0
26.10.2020 16:00:00 11,5 7,2 - - 0,0
26.10.2020 15:00:00 12,5 8,2 - - 0,0
26.10.2020 14:00:00 12,8 9,4 - - 0,2
26.10.2020 13:00:00 10,9 8,6 - - 0,4
26.10.2020 12:00:00 10,7 7,8 - - 0,2
26.10.2020 11:00:00 10,9 7,0 - - 0,0
26.10.2020 10:00:00 10,8 6,9 - - 0,0
26.10.2020 09:00:00 9,1 6,5 11,4 13,0 0,0
26.10.2020 08:00:00 7,0 5,9 - - 0,0
26.10.2020 07:00:00 5,8 5,0 - - 0,0
26.10.2020 06:00:00 5,8 5,1 - - 0,0
26.10.2020 05:00:00 6,0 5,3 - - 0,0
26.10.2020 04:00:00 5,7 5,1 - - 0,0
26.10.2020 03:00:00 6,2 5,4 - - 0,0
26.10.2020 02:00:00 7,0 6,1 - - 0,2
26.10.2020 01:00:00 7,3 6,5 - - 0,0
26.10.2020 00:00:00 6,0 5,7 - - 0,0
25.10.2020 23:00:00 6,6 5,7 - - 0,0
25.10.2020 22:00:00 6,8 5,8 - - 0,0
25.10.2020 21:00:00 8,0 6,9 - - 0,2
25.10.2020 20:00:00 9,2 7,2 - - 0,0
25.10.2020 19:00:00 8,8 6,9 - - 0,0
25.10.2020 18:00:00 8,5 6,3 - - 0,0
25.10.2020 17:00:00 9,8 6,6 - - 0,0
25.10.2020 16:00:00 11,3 6,6 - - 0,0
25.10.2020 15:00:00 13,0 6,2 - - 0,0
25.10.2020 14:00:00 13,1 5,9 - - 0,0
25.10.2020 13:00:00 13,3 6,4 - - 0,0
25.10.2020 12:00:00 12,6 7,7 - - 0,0
25.10.2020 11:00:00 13,0 8,4 - - 0,0
25.10.2020 10:00:00 10,7 8,1 - - 0,0
25.10.2020 09:00:00 9,4 7,2 12,0 13,0 0,0
25.10.2020 08:00:00 8,8 6,6 - - 0,0
25.10.2020 07:00:00 7,8 6,8 - - 0,2
25.10.2020 06:00:00 7,6 6,6 - - 0,0
25.10.2020 05:00:00 8,2 7,1 - - 0,0
25.10.2020 04:00:00 8,8 7,8 - - 0,0

tt = temperature
td = dewpoint
tt -20cm = temperature -20cm
tt -100cm = temperature -100cm
rr = precipitation

Next stations